sensor_id;sensor_type;location;lat;lon;timestamp;P1;durP1;ratioP1;P2;durP2;ratioP2
57635;SDS011;43465;50.728;4.160;2023-03-01T00:01:58;14.68;;;9.95;;
57635;SDS011;43465;50.728;4.160;2023-03-01T00:04:24;12.52;;;9.75;;
57635;SDS011;43465;50.728;4.160;2023-03-01T00:06:50;12.20;;;9.23;;
57635;SDS011;43465;50.728;4.160;2023-03-01T00:09:15;11.52;;;10.05;;
57635;SDS011;43465;50.728;4.160;2023-03-01T00:11:42;14.90;;;10.05;;
57635;SDS011;43465;50.728;4.160;2023-03-01T00:14:08;15.55;;;10.88;;
57635;SDS011;43465;50.728;4.160;2023-03-01T00:16:35;13.25;;;10.05;;
57635;SDS011;43465;50.728;4.160;2023-03-01T00:19:06;14.50;;;10.23;;
57635;SDS011;43465;50.728;4.160;2023-03-01T00:21:34;12.85;;;9.68;;
57635;SDS011;43465;50.728;4.160;2023-03-01T00:24:00;13.68;;;9.23;;
57635;SDS011;43465;50.728;4.160;2023-03-01T00:26:26;12.35;;;9.73;;
57635;SDS011;43465;50.728;4.160;2023-03-01T00:28:53;12.75;;;10.05;;
57635;SDS011;43465;50.728;4.160;2023-03-01T00:31:21;15.55;;;10.05;;
57635;SDS011;43465;50.728;4.160;2023-03-01T00:33:48;13.05;;;10.25;;
57635;SDS011;43465;50.728;4.160;2023-03-01T00:36:17;12.10;;;9.90;;
57635;SDS011;43465;50.728;4.160;2023-03-01T00:38:43;13.15;;;9.55;;
57635;SDS011;43465;50.728;4.160;2023-03-01T00:41:12;16.55;;;10.88;;
57635;SDS011;43465;50.728;4.160;2023-03-01T00:43:40;15.07;;;10.48;;
57635;SDS011;43465;50.728;4.160;2023-03-01T00:46:07;13.65;;;10.70;;
57635;SDS011;43465;50.728;4.160;2023-03-01T00:48:35;11.90;;;9.80;;
57635;SDS011;43465;50.728;4.160;2023-03-01T00:51:05;16.08;;;10.68;;
57635;SDS011;43465;50.728;4.160;2023-03-01T00:53:31;12.32;;;9.77;;
57635;SDS011;43465;50.728;4.160;2023-03-01T00:55:57;13.02;;;10.20;;
57635;SDS011;43465;50.728;4.160;2023-03-01T00:58:23;16.05;;;10.30;;
57635;SDS011;43465;50.728;4.160;2023-03-01T01:00:49;12.20;;;9.90;;
57635;SDS011;43465;50.728;4.160;2023-03-01T01:03:15;24.70;;;13.45;;
57635;SDS011;43465;50.728;4.160;2023-03-01T01:05:40;23.35;;;12.82;;
57635;SDS011;43465;50.728;4.160;2023-03-01T01:08:06;20.90;;;12.30;;
57635;SDS011;43465;50.728;4.160;2023-03-01T01:10:33;17.95;;;11.63;;
57635;SDS011;43465;50.728;4.160;2023-03-01T01:12:59;17.25;;;11.18;;
57635;SDS011;43465;50.728;4.160;2023-03-01T01:15:25;16.60;;;10.80;;
57635;SDS011;43465;50.728;4.160;2023-03-01T01:17:51;24.88;;;12.88;;
57635;SDS011;43465;50.728;4.160;2023-03-01T01:20:17;17.17;;;11.95;;
57635;SDS011;43465;50.728;4.160;2023-03-01T01:22:43;21.98;;;12.75;;
57635;SDS011;43465;50.728;4.160;2023-03-01T01:25:09;16.20;;;11.25;;
57635;SDS011;43465;50.728;4.160;2023-03-01T01:27:35;15.18;;;10.85;;
57635;SDS011;43465;50.728;4.160;2023-03-01T01:30:01;17.77;;;11.68;;
57635;SDS011;43465;50.728;4.160;2023-03-01T01:32:28;19.77;;;12.10;;
57635;SDS011;43465;50.728;4.160;2023-03-01T01:34:53;18.52;;;12.40;;
57635;SDS011;43465;50.728;4.160;2023-03-01T01:37:19;16.63;;;11.55;;
57635;SDS011;43465;50.728;4.160;2023-03-01T01:39:45;13.73;;;10.15;;
57635;SDS011;43465;50.728;4.160;2023-03-01T01:42:13;13.88;;;10.65;;
57635;SDS011;43465;50.728;4.160;2023-03-01T01:44:42;14.57;;;10.80;;
57635;SDS011;43465;50.728;4.160;2023-03-01T01:47:18;14.13;;;10.65;;
57635;SDS011;43465;50.728;4.160;2023-03-01T01:49:49;12.38;;;9.77;;
57635;SDS011;43465;50.728;4.160;2023-03-01T01:52:27;11.55;;;9.38;;
57635;SDS011;43465;50.728;4.160;2023-03-01T01:55:01;14.60;;;10.45;;
57635;SDS011;43465;50.728;4.160;2023-03-01T01:57:34;17.02;;;10.52;;
57635;SDS011;43465;50.728;4.160;2023-03-01T02:00:07;19.00;;;11.32;;
57635;SDS011;43465;50.728;4.160;2023-03-01T02:02:35;16.75;;;10.73;;
57635;SDS011;43465;50.728;4.160;2023-03-01T02:05:05;16.50;;;9.75;;
57635;SDS011;43465;50.728;4.160;2023-03-01T02:07:56;13.57;;;9.38;;
57635;SDS011;43465;50.728;4.160;2023-03-01T02:10:24;13.82;;;10.13;;
57635;SDS011;43465;50.728;4.160;2023-03-01T02:12:51;13.73;;;10.10;;
57635;SDS011;43465;50.728;4.160;2023-03-01T02:15:19;14.10;;;9.32;;
57635;SDS011;43465;50.728;4.160;2023-03-01T02:17:44;11.25;;;9.68;;
57635;SDS011;43465;50.728;4.160;2023-03-01T02:20:19;14.30;;;10.30;;
57635;SDS011;43465;50.728;4.160;2023-03-01T02:23:05;13.75;;;9.57;;
57635;SDS011;43465;50.728;4.160;2023-03-01T02:25:34;14.40;;;10.23;;
57635;SDS011;43465;50.728;4.160;2023-03-01T02:28:10;15.93;;;10.68;;
57635;SDS011;43465;50.728;4.160;2023-03-01T02:33:25;16.20;;;10.45;;
57635;SDS011;43465;50.728;4.160;2023-03-01T02:35:51;12.45;;;10.15;;
57635;SDS011;43465;50.728;4.160;2023-03-01T02:38:19;15.45;;;11.38;;
57635;SDS011;43465;50.728;4.160;2023-03-01T02:40:45;14.38;;;10.05;;
57635;SDS011;43465;50.728;4.160;2023-03-01T02:43:12;13.80;;;10.23;;
57635;SDS011;43465;50.728;4.160;2023-03-01T02:45:38;15.52;;;11.15;;
57635;SDS011;43465;50.728;4.160;2023-03-01T02:48:12;21.83;;;11.35;;
57635;SDS011;43465;50.728;4.160;2023-03-01T02:53:44;18.23;;;11.50;;
57635;SDS011;43465;50.728;4.160;2023-03-01T02:56:18;19.70;;;11.10;;
57635;SDS011;43465;50.728;4.160;2023-03-01T02:58:44;16.55;;;11.55;;
57635;SDS011;43465;50.728;4.160;2023-03-01T03:01:13;16.65;;;10.98;;
57635;SDS011;43465;50.728;4.160;2023-03-01T03:03:40;21.60;;;11.60;;
57635;SDS011;43465;50.728;4.160;2023-03-01T03:06:06;15.98;;;10.75;;
57635;SDS011;43465;50.728;4.160;2023-03-01T03:08:32;15.63;;;10.68;;
57635;SDS011;43465;50.728;4.160;2023-03-01T03:10:57;16.02;;;10.25;;
57635;SDS011;43465;50.728;4.160;2023-03-01T03:13:23;19.88;;;11.15;;
57635;SDS011;43465;50.728;4.160;2023-03-01T03:15:53;21.08;;;11.32;;
57635;SDS011;43465;50.728;4.160;2023-03-01T03:18:20;26.58;;;12.30;;
57635;SDS011;43465;50.728;4.160;2023-03-01T03:20:46;21.55;;;12.10;;
57635;SDS011;43465;50.728;4.160;2023-03-01T03:23:13;15.68;;;10.23;;
57635;SDS011;43465;50.728;4.160;2023-03-01T03:25:38;13.93;;;9.98;;
57635;SDS011;43465;50.728;4.160;2023-03-01T03:28:05;19.55;;;10.75;;
57635;SDS011;43465;50.728;4.160;2023-03-01T03:30:35;14.63;;;9.82;;
57635;SDS011;43465;50.728;4.160;2023-03-01T03:33:04;14.45;;;10.20;;
57635;SDS011;43465;50.728;4.160;2023-03-01T03:35:32;12.75;;;9.93;;
57635;SDS011;43465;50.728;4.160;2023-03-01T03:38:07;16.92;;;9.77;;
57635;SDS011;43465;50.728;4.160;2023-03-01T03:40:41;18.42;;;10.73;;
57635;SDS011;43465;50.728;4.160;2023-03-01T03:45:41;21.05;;;11.30;;
57635;SDS011;43465;50.728;4.160;2023-03-01T03:48:09;23.42;;;11.90;;
57635;SDS011;43465;50.728;4.160;2023-03-01T03:50:35;22.27;;;12.13;;
57635;SDS011;43465;50.728;4.160;2023-03-01T03:53:03;20.48;;;11.85;;
57635;SDS011;43465;50.728;4.160;2023-03-01T03:55:30;19.08;;;11.38;;
57635;SDS011;43465;50.728;4.160;2023-03-01T03:57:59;16.38;;;10.85;;
57635;SDS011;43465;50.728;4.160;2023-03-01T04:00:31;21.50;;;11.70;;
57635;SDS011;43465;50.728;4.160;2023-03-01T04:02:59;14.75;;;10.07;;
57635;SDS011;43465;50.728;4.160;2023-03-01T04:05:26;15.73;;;10.57;;
57635;SDS011;43465;50.728;4.160;2023-03-01T04:07:52;14.98;;;10.18;;
57635;SDS011;43465;50.728;4.160;2023-03-01T04:10:26;16.27;;;10.05;;
57635;SDS011;43465;50.728;4.160;2023-03-01T04:12:53;14.38;;;10.50;;
57635;SDS011;43465;50.728;4.160;2023-03-01T04:15:21;13.90;;;9.40;;
57635;SDS011;43465;50.728;4.160;2023-03-01T04:17:49;15.30;;;10.27;;
57635;SDS011;43465;50.728;4.160;2023-03-01T04:20:18;15.38;;;10.65;;
57635;SDS011;43465;50.728;4.160;2023-03-01T04:22:56;16.27;;;10.43;;
57635;SDS011;43465;50.728;4.160;2023-03-01T04:25:23;16.88;;;10.77;;
57635;SDS011;43465;50.728;4.160;2023-03-01T04:27:49;11.98;;;9.77;;
57635;SDS011;43465;50.728;4.160;2023-03-01T04:30:14;16.50;;;10.60;;
57635;SDS011;43465;50.728;4.160;2023-03-01T04:32:40;16.23;;;11.07;;
57635;SDS011;43465;50.728;4.160;2023-03-01T04:35:06;15.90;;;11.32;;
57635;SDS011;43465;50.728;4.160;2023-03-01T04:37:32;17.65;;;11.10;;
57635;SDS011;43465;50.728;4.160;2023-03-01T04:39:59;14.75;;;10.95;;
57635;SDS011;43465;50.728;4.160;2023-03-01T04:42:24;14.63;;;9.88;;
57635;SDS011;43465;50.728;4.160;2023-03-01T04:44:50;15.73;;;10.13;;
57635;SDS011;43465;50.728;4.160;2023-03-01T04:47:17;12.80;;;10.35;;
57635;SDS011;43465;50.728;4.160;2023-03-01T04:49:43;14.27;;;10.68;;
57635;SDS011;43465;50.728;4.160;2023-03-01T04:52:08;16.00;;;11.02;;
57635;SDS011;43465;50.728;4.160;2023-03-01T04:54:34;14.43;;;10.57;;
57635;SDS011;43465;50.728;4.160;2023-03-01T04:57:01;17.38;;;11.00;;
57635;SDS011;43465;50.728;4.160;2023-03-01T04:59:28;17.30;;;10.43;;
57635;SDS011;43465;50.728;4.160;2023-03-01T05:01:54;15.75;;;10.30;;
57635;SDS011;43465;50.728;4.160;2023-03-01T05:04:24;12.20;;;9.63;;
57635;SDS011;43465;50.728;4.160;2023-03-01T05:06:50;13.48;;;10.10;;
57635;SDS011;43465;50.728;4.160;2023-03-01T05:09:15;15.15;;;10.52;;
57635;SDS011;43465;50.728;4.160;2023-03-01T05:11:42;12.98;;;10.02;;
57635;SDS011;43465;50.728;4.160;2023-03-01T05:14:08;12.52;;;10.35;;
57635;SDS011;43465;50.728;4.160;2023-03-01T05:16:34;14.60;;;9.73;;
57635;SDS011;43465;50.728;4.160;2023-03-01T05:19:01;14.13;;;10.38;;
57635;SDS011;43465;50.728;4.160;2023-03-01T05:21:36;14.70;;;10.30;;
57635;SDS011;43465;50.728;4.160;2023-03-01T05:24:22;12.63;;;9.95;;
57635;SDS011;43465;50.728;4.160;2023-03-01T05:26:48;14.18;;;10.32;;
57635;SDS011;43465;50.728;4.160;2023-03-01T05:29:16;14.27;;;10.40;;
57635;SDS011;43465;50.728;4.160;2023-03-01T05:31:43;16.77;;;10.85;;
57635;SDS011;43465;50.728;4.160;2023-03-01T05:34:08;14.68;;;10.52;;
57635;SDS011;43465;50.728;4.160;2023-03-01T05:36:36;16.63;;;10.30;;
57635;SDS011;43465;50.728;4.160;2023-03-01T05:39:03;12.93;;;10.13;;
57635;SDS011;43465;50.728;4.160;2023-03-01T05:41:28;15.05;;;11.00;;
57635;SDS011;43465;50.728;4.160;2023-03-01T05:43:54;13.63;;;10.55;;
57635;SDS011;43465;50.728;4.160;2023-03-01T05:46:20;13.60;;;10.40;;
57635;SDS011;43465;50.728;4.160;2023-03-01T05:48:45;14.10;;;9.95;;
57635;SDS011;43465;50.728;4.160;2023-03-01T05:51:13;14.20;;;10.60;;
57635;SDS011;43465;50.728;4.160;2023-03-01T05:53:38;14.27;;;10.80;;
57635;SDS011;43465;50.728;4.160;2023-03-01T05:56:04;13.30;;;10.48;;
57635;SDS011;43465;50.728;4.160;2023-03-01T05:58:31;13.75;;;10.32;;
57635;SDS011;43465;50.728;4.160;2023-03-01T06:00:57;13.57;;;10.52;;
57635;SDS011;43465;50.728;4.160;2023-03-01T06:03:22;12.23;;;9.98;;
57635;SDS011;43465;50.728;4.160;2023-03-01T06:05:48;13.80;;;10.55;;
57635;SDS011;43465;50.728;4.160;2023-03-01T06:08:14;13.85;;;9.85;;
57635;SDS011;43465;50.728;4.160;2023-03-01T06:10:39;22.15;;;10.02;;
57635;SDS011;43465;50.728;4.160;2023-03-01T06:13:05;12.35;;;10.10;;
57635;SDS011;43465;50.728;4.160;2023-03-01T06:15:31;18.52;;;10.98;;
57635;SDS011;43465;50.728;4.160;2023-03-01T06:17:57;14.27;;;10.68;;
57635;SDS011;43465;50.728;4.160;2023-03-01T06:20:23;14.77;;;10.73;;
57635;SDS011;43465;50.728;4.160;2023-03-01T06:22:50;14.55;;;9.88;;
57635;SDS011;43465;50.728;4.160;2023-03-01T06:25:19;17.70;;;10.10;;
57635;SDS011;43465;50.728;4.160;2023-03-01T06:27:49;18.13;;;10.52;;
57635;SDS011;43465;50.728;4.160;2023-03-01T06:30:16;17.52;;;10.05;;
57635;SDS011;43465;50.728;4.160;2023-03-01T06:32:43;15.23;;;9.80;;
57635;SDS011;43465;50.728;4.160;2023-03-01T06:35:13;13.70;;;9.32;;
57635;SDS011;43465;50.728;4.160;2023-03-01T06:37:42;14.85;;;9.95;;
57635;SDS011;43465;50.728;4.160;2023-03-01T06:40:09;15.70;;;10.23;;
57635;SDS011;43465;50.728;4.160;2023-03-01T06:42:37;16.63;;;10.25;;
57635;SDS011;43465;50.728;4.160;2023-03-01T06:45:05;13.98;;;9.60;;
57635;SDS011;43465;50.728;4.160;2023-03-01T06:47:32;17.45;;;10.73;;
57635;SDS011;43465;50.728;4.160;2023-03-01T06:49:58;14.77;;;10.70;;
57635;SDS011;43465;50.728;4.160;2023-03-01T06:52:24;16.02;;;10.57;;
57635;SDS011;43465;50.728;4.160;2023-03-01T06:54:50;13.90;;;11.07;;
57635;SDS011;43465;50.728;4.160;2023-03-01T06:57:16;14.93;;;10.77;;
57635;SDS011;43465;50.728;4.160;2023-03-01T06:59:41;17.73;;;11.63;;
57635;SDS011;43465;50.728;4.160;2023-03-01T07:02:11;14.60;;;10.18;;
57635;SDS011;43465;50.728;4.160;2023-03-01T07:04:37;14.32;;;10.50;;
57635;SDS011;43465;50.728;4.160;2023-03-01T07:07:03;14.82;;;10.38;;
57635;SDS011;43465;50.728;4.160;2023-03-01T07:09:29;13.98;;;9.82;;
57635;SDS011;43465;50.728;4.160;2023-03-01T07:11:55;15.13;;;10.43;;
57635;SDS011;43465;50.728;4.160;2023-03-01T07:14:21;17.75;;;10.55;;
57635;SDS011;43465;50.728;4.160;2023-03-01T07:16:49;20.55;;;12.05;;
57635;SDS011;43465;50.728;4.160;2023-03-01T07:19:15;26.80;;;14.07;;
57635;SDS011;43465;50.728;4.160;2023-03-01T07:21:41;19.75;;;12.15;;
57635;SDS011;43465;50.728;4.160;2023-03-01T07:24:07;21.92;;;11.93;;
57635;SDS011;43465;50.728;4.160;2023-03-01T07:26:34;19.63;;;11.18;;
57635;SDS011;43465;50.728;4.160;2023-03-01T07:29:01;25.67;;;11.95;;
57635;SDS011;43465;50.728;4.160;2023-03-01T07:31:27;21.30;;;11.35;;
57635;SDS011;43465;50.728;4.160;2023-03-01T07:33:56;18.58;;;11.25;;
57635;SDS011;43465;50.728;4.160;2023-03-01T07:36:23;32.28;;;13.02;;
57635;SDS011;43465;50.728;4.160;2023-03-01T07:38:49;18.17;;;11.88;;
57635;SDS011;43465;50.728;4.160;2023-03-01T07:41:15;21.77;;;12.27;;
57635;SDS011;43465;50.728;4.160;2023-03-01T07:43:40;21.08;;;11.45;;
57635;SDS011;43465;50.728;4.160;2023-03-01T07:46:06;17.83;;;11.18;;
57635;SDS011;43465;50.728;4.160;2023-03-01T07:48:32;19.90;;;11.60;;
57635;SDS011;43465;50.728;4.160;2023-03-01T07:50:59;18.98;;;11.57;;
57635;SDS011;43465;50.728;4.160;2023-03-01T07:53:25;22.85;;;11.52;;
57635;SDS011;43465;50.728;4.160;2023-03-01T07:56:04;23.65;;;11.65;;
57635;SDS011;43465;50.728;4.160;2023-03-01T07:58:34;16.15;;;10.75;;
57635;SDS011;43465;50.728;4.160;2023-03-01T08:01:04;20.25;;;11.30;;
57635;SDS011;43465;50.728;4.160;2023-03-01T08:03:31;16.08;;;11.40;;
57635;SDS011;43465;50.728;4.160;2023-03-01T08:05:59;20.58;;;12.10;;
57635;SDS011;43465;50.728;4.160;2023-03-01T08:08:25;20.52;;;12.18;;
57635;SDS011;43465;50.728;4.160;2023-03-01T08:10:51;18.33;;;11.77;;
57635;SDS011;43465;50.728;4.160;2023-03-01T08:13:17;22.17;;;12.43;;
57635;SDS011;43465;50.728;4.160;2023-03-01T08:15:47;20.45;;;12.63;;
57635;SDS011;43465;50.728;4.160;2023-03-01T08:18:17;16.48;;;11.23;;
57635;SDS011;43465;50.728;4.160;2023-03-01T08:20:43;20.25;;;12.95;;
57635;SDS011;43465;50.728;4.160;2023-03-01T08:23:09;18.73;;;11.38;;
57635;SDS011;43465;50.728;4.160;2023-03-01T08:25:35;20.05;;;11.57;;
57635;SDS011;43465;50.728;4.160;2023-03-01T08:28:00;16.63;;;12.48;;
57635;SDS011;43465;50.728;4.160;2023-03-01T08:30:26;16.95;;;12.27;;
57635;SDS011;43465;50.728;4.160;2023-03-01T08:32:51;16.40;;;11.88;;
57635;SDS011;43465;50.728;4.160;2023-03-01T08:35:17;19.25;;;11.63;;
57635;SDS011;43465;50.728;4.160;2023-03-01T08:37:44;18.15;;;12.38;;
57635;SDS011;43465;50.728;4.160;2023-03-01T08:40:10;17.98;;;12.30;;
57635;SDS011;43465;50.728;4.160;2023-03-01T08:42:38;18.92;;;12.43;;
57635;SDS011;43465;50.728;4.160;2023-03-01T08:45:11;17.05;;;12.25;;
57635;SDS011;43465;50.728;4.160;2023-03-01T08:47:37;19.98;;;11.95;;
57635;SDS011;43465;50.728;4.160;2023-03-01T08:50:03;22.98;;;12.25;;
57635;SDS011;43465;50.728;4.160;2023-03-01T08:52:30;17.75;;;11.82;;
57635;SDS011;43465;50.728;4.160;2023-03-01T08:54:57;18.50;;;11.98;;
57635;SDS011;43465;50.728;4.160;2023-03-01T08:57:23;17.50;;;11.85;;
57635;SDS011;43465;50.728;4.160;2023-03-01T08:59:48;16.83;;;11.45;;
57635;SDS011;43465;50.728;4.160;2023-03-01T09:02:15;14.18;;;10.98;;
57635;SDS011;43465;50.728;4.160;2023-03-01T09:04:42;17.10;;;11.38;;
57635;SDS011;43465;50.728;4.160;2023-03-01T09:07:09;15.90;;;11.25;;
57635;SDS011;43465;50.728;4.160;2023-03-01T09:09:35;15.65;;;11.20;;
57635;SDS011;43465;50.728;4.160;2023-03-01T09:12:01;15.00;;;11.02;;
57635;SDS011;43465;50.728;4.160;2023-03-01T09:14:28;16.85;;;11.85;;
57635;SDS011;43465;50.728;4.160;2023-03-01T09:16:54;15.98;;;10.88;;
57635;SDS011;43465;50.728;4.160;2023-03-01T09:19:30;15.27;;;10.70;;
57635;SDS011;43465;50.728;4.160;2023-03-01T09:21:55;15.55;;;10.55;;
57635;SDS011;43465;50.728;4.160;2023-03-01T09:24:23;15.15;;;11.43;;
57635;SDS011;43465;50.728;4.160;2023-03-01T09:26:51;13.68;;;10.88;;
57635;SDS011;43465;50.728;4.160;2023-03-01T09:29:19;14.50;;;10.68;;
57635;SDS011;43465;50.728;4.160;2023-03-01T09:31:45;17.42;;;11.52;;
57635;SDS011;43465;50.728;4.160;2023-03-01T09:34:11;17.50;;;11.52;;
57635;SDS011;43465;50.728;4.160;2023-03-01T09:36:40;16.58;;;11.93;;
57635;SDS011;43465;50.728;4.160;2023-03-01T09:39:05;17.40;;;11.20;;
57635;SDS011;43465;50.728;4.160;2023-03-01T09:46:42;16.05;;;11.52;;
57635;SDS011;43465;50.728;4.160;2023-03-01T09:49:15;15.75;;;10.98;;
57635;SDS011;43465;50.728;4.160;2023-03-01T09:51:47;15.25;;;11.68;;
57635;SDS011;43465;50.728;4.160;2023-03-01T09:54:44;15.70;;;11.85;;
57635;SDS011;43465;50.728;4.160;2023-03-01T09:57:14;16.10;;;11.45;;
57635;SDS011;43465;50.728;4.160;2023-03-01T09:59:49;14.57;;;10.93;;
57635;SDS011;43465;50.728;4.160;2023-03-01T10:02:42;15.05;;;11.77;;
57635;SDS011;43465;50.728;4.160;2023-03-01T10:11:01;17.48;;;12.02;;
57635;SDS011;43465;50.728;4.160;2023-03-01T10:13:44;15.98;;;11.40;;
57635;SDS011;43465;50.728;4.160;2023-03-01T10:19:03;14.68;;;11.52;;
57635;SDS011;43465;50.728;4.160;2023-03-01T10:21:30;17.02;;;12.05;;
57635;SDS011;43465;50.728;4.160;2023-03-01T10:24:13;16.42;;;11.80;;
57635;SDS011;43465;50.728;4.160;2023-03-01T10:26:56;16.73;;;11.88;;
57635;SDS011;43465;50.728;4.160;2023-03-01T10:29:26;16.23;;;11.88;;
57635;SDS011;43465;50.728;4.160;2023-03-01T10:32:02;15.93;;;11.60;;
57635;SDS011;43465;50.728;4.160;2023-03-01T10:34:31;15.93;;;11.30;;
57635;SDS011;43465;50.728;4.160;2023-03-01T10:37:21;17.02;;;12.35;;
57635;SDS011;43465;50.728;4.160;2023-03-01T10:40:04;15.50;;;11.38;;
57635;SDS011;43465;50.728;4.160;2023-03-01T10:42:38;15.65;;;12.07;;
57635;SDS011;43465;50.728;4.160;2023-03-01T10:47:40;15.70;;;12.10;;
57635;SDS011;43465;50.728;4.160;2023-03-01T10:50:09;18.00;;;12.18;;
57635;SDS011;43465;50.728;4.160;2023-03-01T10:52:57;17.33;;;12.45;;
57635;SDS011;43465;50.728;4.160;2023-03-01T10:55:35;17.38;;;12.88;;
57635;SDS011;43465;50.728;4.160;2023-03-01T11:03:24;15.20;;;11.77;;
57635;SDS011;43465;50.728;4.160;2023-03-01T11:08:46;14.75;;;11.80;;
57635;SDS011;43465;50.728;4.160;2023-03-01T11:11:24;19.40;;;11.25;;
57635;SDS011;43465;50.728;4.160;2023-03-01T11:13:57;15.77;;;11.70;;
57635;SDS011;43465;50.728;4.160;2023-03-01T11:19:03;14.00;;;11.60;;
57635;SDS011;43465;50.728;4.160;2023-03-01T11:21:41;15.27;;;11.18;;
57635;SDS011;43465;50.728;4.160;2023-03-01T11:24:15;12.48;;;11.15;;
57635;SDS011;43465;50.728;4.160;2023-03-01T11:26:43;16.23;;;11.13;;
57635;SDS011;43465;50.728;4.160;2023-03-01T11:32:07;16.42;;;11.77;;
57635;SDS011;43465;50.728;4.160;2023-03-01T11:37:03;14.50;;;12.48;;
57635;SDS011;43465;50.728;4.160;2023-03-01T11:39:40;18.02;;;12.85;;
57635;SDS011;43465;50.728;4.160;2023-03-01T11:42:15;18.23;;;12.52;;
57635;SDS011;43465;50.728;4.160;2023-03-01T11:44:46;13.27;;;10.90;;
57635;SDS011;43465;50.728;4.160;2023-03-01T11:47:17;15.93;;;12.40;;
57635;SDS011;43465;50.728;4.160;2023-03-01T11:52:38;19.75;;;14.68;;
57635;SDS011;43465;50.728;4.160;2023-03-01T11:55:30;14.95;;;11.00;;
57635;SDS011;43465;50.728;4.160;2023-03-01T12:15:26;15.55;;;11.60;;
57635;SDS011;43465;50.728;4.160;2023-03-01T12:37:10;14.23;;;11.57;;
57635;SDS011;43465;50.728;4.160;2023-03-01T12:42:24;12.43;;;9.63;;
57635;SDS011;43465;50.728;4.160;2023-03-01T12:51:14;18.50;;;14.43;;
57635;SDS011;43465;50.728;4.160;2023-03-01T12:53:46;19.25;;;13.13;;
57635;SDS011;43465;50.728;4.160;2023-03-01T12:56:15;15.80;;;13.02;;
57635;SDS011;43465;50.728;4.160;2023-03-01T13:07:18;12.57;;;10.27;;
57635;SDS011;43465;50.728;4.160;2023-03-01T13:10:11;14.95;;;9.55;;
57635;SDS011;43465;50.728;4.160;2023-03-01T13:17:53;19.63;;;12.38;;
57635;SDS011;43465;50.728;4.160;2023-03-01T13:31:06;16.30;;;11.80;;
57635;SDS011;43465;50.728;4.160;2023-03-01T13:36:08;17.52;;;13.38;;
57635;SDS011;43465;50.728;4.160;2023-03-01T13:38:36;17.30;;;12.98;;
57635;SDS011;43465;50.728;4.160;2023-03-01T13:46:50;14.32;;;10.85;;
57635;SDS011;43465;50.728;4.160;2023-03-01T13:49:21;21.90;;;14.32;;
57635;SDS011;43465;50.728;4.160;2023-03-01T13:51:50;16.95;;;11.23;;
57635;SDS011;43465;50.728;4.160;2023-03-01T13:54:22;11.65;;;9.95;;
57635;SDS011;43465;50.728;4.160;2023-03-01T13:56:53;12.38;;;10.10;;
57635;SDS011;43465;50.728;4.160;2023-03-01T13:59:22;11.73;;;10.00;;
57635;SDS011;43465;50.728;4.160;2023-03-01T14:01:55;11.70;;;10.50;;
57635;SDS011;43465;50.728;4.160;2023-03-01T14:06:48;17.17;;;11.50;;
57635;SDS011;43465;50.728;4.160;2023-03-01T14:09:24;12.85;;;10.45;;
57635;SDS011;43465;50.728;4.160;2023-03-01T14:11:56;11.63;;;9.50;;
57635;SDS011;43465;50.728;4.160;2023-03-01T14:14:32;13.63;;;10.27;;
57635;SDS011;43465;50.728;4.160;2023-03-01T14:19:32;14.68;;;10.02;;
57635;SDS011;43465;50.728;4.160;2023-03-01T14:22:04;12.18;;;9.40;;
57635;SDS011;43465;50.728;4.160;2023-03-01T14:24:32;11.50;;;9.40;;
57635;SDS011;43465;50.728;4.160;2023-03-01T14:27:02;11.13;;;9.30;;
57635;SDS011;43465;50.728;4.160;2023-03-01T14:29:35;11.88;;;9.65;;
57635;SDS011;43465;50.728;4.160;2023-03-01T14:32:15;12.13;;;9.90;;
57635;SDS011;43465;50.728;4.160;2023-03-01T14:34:45;17.75;;;9.82;;
57635;SDS011;43465;50.728;4.160;2023-03-01T14:37:23;13.07;;;10.30;;
57635;SDS011;43465;50.728;4.160;2023-03-01T14:39:50;13.45;;;9.15;;
57635;SDS011;43465;50.728;4.160;2023-03-01T14:42:17;10.82;;;9.38;;
57635;SDS011;43465;50.728;4.160;2023-03-01T14:44:45;13.88;;;10.15;;
57635;SDS011;43465;50.728;4.160;2023-03-01T14:49:54;13.48;;;11.43;;
57635;SDS011;43465;50.728;4.160;2023-03-01T14:52:34;14.27;;;12.68;;
57635;SDS011;43465;50.728;4.160;2023-03-01T14:55:13;15.02;;;13.43;;
57635;SDS011;43465;50.728;4.160;2023-03-01T14:57:43;17.45;;;11.52;;
57635;SDS011;43465;50.728;4.160;2023-03-01T15:00:12;15.02;;;11.63;;
57635;SDS011;43465;50.728;4.160;2023-03-01T15:02:52;18.85;;;12.13;;
57635;SDS011;43465;50.728;4.160;2023-03-01T15:05:25;11.15;;;9.98;;
57635;SDS011;43465;50.728;4.160;2023-03-01T15:07:55;12.43;;;10.15;;
57635;SDS011;43465;50.728;4.160;2023-03-01T15:10:24;16.80;;;10.30;;
57635;SDS011;43465;50.728;4.160;2023-03-01T15:12:52;13.77;;;9.77;;
57635;SDS011;43465;50.728;4.160;2023-03-01T15:15:38;15.57;;;10.73;;
57635;SDS011;43465;50.728;4.160;2023-03-01T15:20:43;13.30;;;9.68;;
57635;SDS011;43465;50.728;4.160;2023-03-01T15:23:17;16.10;;;10.13;;
57635;SDS011;43465;50.728;4.160;2023-03-01T15:25:51;13.38;;;9.85;;
57635;SDS011;43465;50.728;4.160;2023-03-01T15:28:22;12.95;;;9.35;;
57635;SDS011;43465;50.728;4.160;2023-03-01T15:31:17;22.53;;;15.80;;
57635;SDS011;43465;50.728;4.160;2023-03-01T15:33:46;25.00;;;17.38;;
57635;SDS011;43465;50.728;4.160;2023-03-01T15:36:32;25.10;;;18.02;;
57635;SDS011;43465;50.728;4.160;2023-03-01T15:39:04;17.27;;;14.30;;
57635;SDS011;43465;50.728;4.160;2023-03-01T15:41:48;13.32;;;11.13;;
57635;SDS011;43465;50.728;4.160;2023-03-01T15:44:15;19.45;;;13.60;;
57635;SDS011;43465;50.728;4.160;2023-03-01T15:46:52;20.98;;;14.63;;
57635;SDS011;43465;50.728;4.160;2023-03-01T15:49:40;31.35;;;20.55;;
57635;SDS011;43465;50.728;4.160;2023-03-01T15:52:06;20.05;;;15.68;;
57635;SDS011;43465;50.728;4.160;2023-03-01T15:54:54;67.70;;;42.08;;
57635;SDS011;43465;50.728;4.160;2023-03-01T15:57:21;17.67;;;12.23;;
57635;SDS011;43465;50.728;4.160;2023-03-01T15:59:46;18.02;;;13.27;;
57635;SDS011;43465;50.728;4.160;2023-03-01T16:02:12;30.05;;;20.98;;
57635;SDS011;43465;50.728;4.160;2023-03-01T16:04:38;20.50;;;14.52;;
57635;SDS011;43465;50.728;4.160;2023-03-01T16:07:04;27.05;;;18.38;;
57635;SDS011;43465;50.728;4.160;2023-03-01T16:09:30;29.52;;;19.98;;
57635;SDS011;43465;50.728;4.160;2023-03-01T16:11:57;25.08;;;18.38;;
57635;SDS011;43465;50.728;4.160;2023-03-01T16:14:23;12.55;;;10.10;;
57635;SDS011;43465;50.728;4.160;2023-03-01T16:16:48;12.23;;;10.57;;
57635;SDS011;43465;50.728;4.160;2023-03-01T16:19:14;17.48;;;12.10;;
57635;SDS011;43465;50.728;4.160;2023-03-01T16:21:40;14.98;;;12.27;;
57635;SDS011;43465;50.728;4.160;2023-03-01T16:24:07;15.52;;;11.52;;
57635;SDS011;43465;50.728;4.160;2023-03-01T16:26:33;15.70;;;12.02;;
57635;SDS011;43465;50.728;4.160;2023-03-01T16:28:59;20.60;;;15.52;;
57635;SDS011;43465;50.728;4.160;2023-03-01T16:31:25;20.48;;;14.20;;
57635;SDS011;43465;50.728;4.160;2023-03-01T16:33:55;16.20;;;12.80;;
57635;SDS011;43465;50.728;4.160;2023-03-01T16:36:23;94.60;;;72.60;;
57635;SDS011;43465;50.728;4.160;2023-03-01T16:38:51;168.73;;;130.43;;
57635;SDS011;43465;50.728;4.160;2023-03-01T16:41:17;60.60;;;49.28;;
57635;SDS011;43465;50.728;4.160;2023-03-01T16:43:44;35.33;;;28.23;;
57635;SDS011;43465;50.728;4.160;2023-03-01T16:46:15;23.25;;;16.92;;
57635;SDS011;43465;50.728;4.160;2023-03-01T16:48:43;17.58;;;12.93;;